Time;durP1;ratioP1;P1;durP2;ratioP2;P2;SDS_P1;SDS_P2;PMS_P1;PMS_P2;Temp;Humidity;BMP_temperature;BMP_pressure;BME280_temperature;BME280_humidity;BME280_pressure;Samples;Min_cycle;Max_cycle;Signal;HPM_P1;HPM_P2
2022/07/22 00:01:57;;;;;;;6.27;4.27;;;;;;;;;;5014333;28;20286;-83
2022/07/22 00:04:25;;;;;;;8.27;4.77;;;;;;;;;;5014662;28;20196;-83
2022/07/22 00:10:23;;;;;;;15.10;4.50;;;;;;;;;;5014777;28;20203;-85
2022/07/22 00:12:54;;;;;;;6.70;4.00;;;;;;;;;;5014108;28;20214;-85
2022/07/22 00:15:21;;;;;;;8.77;4.13;;;;;;;;;;5014122;28;20246;-85
2022/07/22 00:17:49;;;;;;;11.90;4.73;;;;;;;;;;5014118;28;20219;-85
2022/07/22 00:20:16;;;;;;;8.17;4.27;;;;;;;;;;4996768;28;20685;-85
2022/07/22 00:26:09;;;;;;;6.07;5.00;;;;;;;;;;5014795;28;20195;-84
2022/07/22 00:28:36;;;;;;;4.63;4.20;;;;;;;;;;5013720;28;20624;-84
2022/07/22 00:31:07;;;;;;;22.40;4.77;;;;;;;;;;5013412;28;20233;-83
2022/07/22 00:33:34;;;;;;;5.00;4.37;;;;;;;;;;4996053;28;20200;-83
2022/07/22 00:36:03;;;;;;;7.30;4.20;;;;;;;;;;5014005;28;20678;-84
2022/07/22 00:38:33;;;;;;;5.60;4.60;;;;;;;;;;4996306;28;20210;-84
2022/07/22 00:41:00;;;;;;;7.20;4.30;;;;;;;;;;5013201;28;20214;-84
2022/07/22 00:43:30;;;;;;;7.20;4.20;;;;;;;;;;5013588;28;20210;-84
2022/07/22 00:49:25;;;;;;;12.07;4.77;;;;;;;;;;5014037;28;20244;-86
2022/07/22 00:55:32;;;;;;;7.13;4.97;;;;;;;;;;5014563;28;20254;-87
2022/07/22 00:58:04;;;;;;;4.73;4.30;;;;;;;;;;5013754;28;20211;-85
2022/07/22 01:00:33;;;;;;;6.00;4.70;;;;;;;;;;4996216;28;20242;-83
2022/07/22 01:03:00;;;;;;;5.43;4.83;;;;;;;;;;5013048;28;20199;-84
2022/07/22 01:05:32;;;;;;;5.17;4.67;;;;;;;;;;4995497;28;20208;-83
2022/07/22 01:08:01;;;;;;;5.23;4.83;;;;;;;;;;5011955;28;20563;-82
2022/07/22 01:10:28;;;;;;;8.80;4.37;;;;;;;;;;5012811;28;20239;-83
2022/07/22 01:12:56;;;;;;;4.97;4.47;;;;;;;;;;4995104;28;20224;-86
2022/07/22 01:15:25;;;;;;;6.03;5.37;;;;;;;;;;5013455;28;20211;-83
2022/07/22 01:17:58;;;;;;;5.70;4.40;;;;;;;;;;5013084;28;20203;-84
2022/07/22 01:20:28;;;;;;;4.70;4.33;;;;;;;;;;4994408;28;20203;-84
2022/07/22 01:22:57;;;;;;;5.47;4.47;;;;;;;;;;5012743;28;20215;-83
2022/07/22 01:25:26;;;;;;;7.97;4.77;;;;;;;;;;4996043;28;20717;-82
2022/07/22 01:27:53;;;;;;;4.17;3.77;;;;;;;;;;5012649;28;20451;-82
2022/07/22 01:30:20;;;;;;;5.67;4.70;;;;;;;;;;5012949;28;20222;-82
2022/07/22 01:32:47;;;;;;;4.73;4.33;;;;;;;;;;4979266;28;20211;-82
2022/07/22 01:35:14;;;;;;;4.80;4.40;;;;;;;;;;4995509;28;20218;-84
2022/07/22 01:37:45;;;;;;;5.37;4.70;;;;;;;;;;4979355;28;20207;-83
2022/07/22 01:40:40;;;;;;;4.90;4.43;;;;;;;;;;5013105;28;20705;-82
2022/07/22 01:43:07;;;;;;;7.23;4.87;;;;;;;;;;4994294;28;20230;-84
2022/07/22 01:48:58;;;;;;;7.20;4.60;;;;;;;;;;5013353;28;20163;-84
2022/07/22 01:51:25;;;;;;;9.20;5.07;;;;;;;;;;4996145;28;20226;-83
2022/07/22 01:53:54;;;;;;;7.93;5.00;;;;;;;;;;5013222;28;20554;-83
2022/07/22 01:56:22;;;;;;;4.70;4.20;;;;;;;;;;4995074;28;20204;-86
2022/07/22 01:58:49;;;;;;;5.53;5.03;;;;;;;;;;4995580;28;20203;-83
2022/07/22 02:01:16;;;;;;;9.00;4.70;;;;;;;;;;4995582;28;20199;-83
2022/07/22 02:03:43;;;;;;;5.30;4.80;;;;;;;;;;4979790;28;20243;-86
2022/07/22 02:06:11;;;;;;;5.87;5.27;;;;;;;;;;4995523;28;20297;-86
2022/07/22 02:08:39;;;;;;;7.00;5.17;;;;;;;;;;4979548;28;20207;-86
2022/07/22 02:11:08;;;;;;;6.33;4.20;;;;;;;;;;5014189;28;20221;-86
2022/07/22 02:13:38;;;;;;;6.77;4.23;;;;;;;;;;5013308;28;20235;-87
2022/07/22 02:16:05;;;;;;;5.60;4.73;;;;;;;;;;5012728;28;20255;-86
2022/07/22 02:18:33;;;;;;;5.37;4.87;;;;;;;;;;4978991;28;20767;-82
2022/07/22 02:21:00;;;;;;;4.80;4.30;;;;;;;;;;5011260;28;20290;-83
2022/07/22 02:23:27;;;;;;;5.37;4.73;;;;;;;;;;5010561;28;20207;-85
2022/07/22 02:25:54;;;;;;;6.67;4.37;;;;;;;;;;4995078;28;20214;-85
2022/07/22 02:28:23;;;;;;;4.80;4.40;;;;;;;;;;5012392;28;20567;-82
2022/07/22 02:30:50;;;;;;;10.33;4.10;;;;;;;;;;4994426;28;20301;-83
2022/07/22 02:33:20;;;;;;;5.20;4.60;;;;;;;;;;4995097;28;20618;-82
2022/07/22 02:35:47;;;;;;;8.53;5.10;;;;;;;;;;5011972;28;20203;-83
2022/07/22 02:38:15;;;;;;;6.77;5.00;;;;;;;;;;4994024;28;20207;-86
2022/07/22 02:40:42;;;;;;;4.37;4.07;;;;;;;;;;5012326;28;20187;-80
2022/07/22 02:43:14;;;;;;;5.73;4.10;;;;;;;;;;5012567;28;20191;-89
2022/07/22 02:45:49;;;;;;;9.00;4.30;;;;;;;;;;4993074;28;20740;-88
2022/07/22 02:48:16;;;;;;;5.00;4.50;;;;;;;;;;4994187;28;20674;-88
2022/07/22 02:50:46;;;;;;;4.50;4.10;;;;;;;;;;4994766;28;20227;-86
2022/07/22 02:53:17;;;;;;;5.67;4.40;;;;;;;;;;5012202;28;20669;-87
2022/07/22 02:55:44;;;;;;;6.43;4.73;;;;;;;;;;4995735;28;20195;-86
2022/07/22 02:58:12;;;;;;;4.53;4.13;;;;;;;;;;4994584;28;20211;-87
2022/07/22 03:00:41;;;;;;;8.30;4.23;;;;;;;;;;4994232;28;20204;-87
2022/07/22 03:03:10;;;;;;;4.40;4.00;;;;;;;;;;5011699;28;20682;-86
2022/07/22 03:05:39;;;;;;;11.13;5.00;;;;;;;;;;5012095;28;20195;-84
2022/07/22 03:08:06;;;;;;;6.33;5.00;;;;;;;;;;4993939;28;20207;-83
2022/07/22 03:10:33;;;;;;;16.20;5.50;;;;;;;;;;5011621;28;20227;-86
2022/07/22 03:13:02;;;;;;;11.70;4.90;;;;;;;;;;4974978;28;20263;-84
2022/07/22 03:15:29;;;;;;;5.00;4.50;;;;;;;;;;4991005;28;20212;-87
2022/07/22 03:18:04;;;;;;;4.43;4.03;;;;;;;;;;4995124;28;20208;-87
2022/07/22 03:20:33;;;;;;;7.70;4.40;;;;;;;;;;4992657;28;20203;-87
2022/07/22 03:23:00;;;;;;;9.17;5.17;;;;;;;;;;4991133;28;20197;-84
2022/07/22 03:25:27;;;;;;;10.90;6.13;;;;;;;;;;4992231;28;20211;-84
2022/07/22 03:27:54;;;;;;;7.30;5.00;;;;;;;;;;4990557;28;20215;-85
2022/07/22 03:30:21;;;;;;;11.57;6.00;;;;;;;;;;4975205;28;20278;-83
2022/07/22 03:32:48;;;;;;;5.30;4.83;;;;;;;;;;4995352;28;20572;-85
2022/07/22 03:35:16;;;;;;;5.73;4.67;;;;;;;;;;4995953;28;20211;-84
2022/07/22 03:37:45;;;;;;;6.60;4.73;;;;;;;;;;4997556;28;20262;-84
2022/07/22 03:40:13;;;;;;;4.90;4.50;;;;;;;;;;4995388;28;20208;-83
2022/07/22 03:42:40;;;;;;;5.30;4.80;;;;;;;;;;4995824;28;20746;-89
2022/07/22 03:45:10;;;;;;;6.50;4.50;;;;;;;;;;4996108;28;20204;-85
2022/07/22 03:47:38;;;;;;;10.03;5.07;;;;;;;;;;4993317;28;20196;-86
2022/07/22 03:50:09;;;;;;;4.87;4.30;;;;;;;;;;4987353;28;20209;-87
2022/07/22 03:52:37;;;;;;;5.93;4.63;;;;;;;;;;4976079;28;20204;-86
2022/07/22 03:55:11;;;;;;;13.17;5.43;;;;;;;;;;4961409;28;20277;-89
2022/07/22 03:57:46;;;;;;;7.57;4.87;;;;;;;;;;4977933;28;20208;-89
2022/07/22 04:00:13;;;;;;;5.60;4.53;;;;;;;;;;4974695;28;20260;-86
2022/07/22 04:02:40;;;;;;;6.87;5.33;;;;;;;;;;4977472;28;20664;-86
2022/07/22 04:05:08;;;;;;;8.37;5.40;;;;;;;;;;4979296;28;20211;-89
2022/07/22 04:07:36;;;;;;;9.83;5.37;;;;;;;;;;4975878;28;20211;-84
2022/07/22 04:10:06;;;;;;;7.70;4.83;;;;;;;;;;4958583;28;20209;-85
2022/07/22 04:12:34;;;;;;;4.87;4.33;;;;;;;;;;4981653;28;20628;-82
2022/07/22 04:15:02;;;;;;;5.80;4.67;;;;;;;;;;4977536;28;20200;-83
2022/07/22 04:17:29;;;;;;;7.47;5.00;;;;;;;;;;4994381;28;20211;-83
2022/07/22 04:19:57;;;;;;;4.63;4.23;;;;;;;;;;4976151;28;20204;-85
2022/07/22 04:22:25;;;;;;;5.23;4.50;;;;;;;;;;4994952;28;20220;-84
2022/07/22 04:28:16;;;;;;;4.87;4.37;;;;;;;;;;5006480;28;20248;-83
2022/07/22 04:30:44;;;;;;;6.50;4.60;;;;;;;;;;5023215;28;20246;-82
2022/07/22 04:33:15;;;;;;;7.23;4.83;;;;;;;;;;4998199;28;20226;-86
2022/07/22 04:35:43;;;;;;;5.33;4.83;;;;;;;;;;5012371;28;20204;-86
2022/07/22 04:38:10;;;;;;;5.10;4.70;;;;;;;;;;5011930;28;20655;-84
2022/07/22 04:40:37;;;;;;;7.53;4.80;;;;;;;;;;5009241;28;20192;-84
2022/07/22 04:43:04;;;;;;;8.53;5.37;;;;;;;;;;5008215;28;20261;-86
2022/07/22 04:45:32;;;;;;;7.70;5.30;;;;;;;;;;5013255;28;20196;-86
2022/07/22 04:47:59;;;;;;;8.23;5.20;;;;;;;;;;5011704;28;20568;-83
2022/07/22 04:50:26;;;;;;;8.50;4.40;;;;;;;;;;5012215;28;20218;-82
2022/07/22 04:52:52;;;;;;;5.10;4.37;;;;;;;;;;5012275;28;20199;-83
2022/07/22 04:55:19;;;;;;;4.87;4.53;;;;;;;;;;5011557;28;20199;-83
2022/07/22 04:57:46;;;;;;;7.77;4.70;;;;;;;;;;5012111;28;20254;-83
2022/07/22 05:00:15;;;;;;;5.70;4.67;;;;;;;;;;5011798;28;20219;-83
2022/07/22 05:02:43;;;;;;;5.87;4.10;;;;;;;;;;5012243;28;20275;-83
2022/07/22 05:05:10;;;;;;;8.77;4.70;;;;;;;;;;5011401;28;20250;-83
2022/07/22 05:07:37;;;;;;;7.73;5.47;;;;;;;;;;5011354;28;20203;-83
2022/07/22 05:10:05;;;;;;;7.93;5.30;;;;;;;;;;5011817;28;20207;-84
2022/07/22 05:12:32;;;;;;;7.13;5.97;;;;;;;;;;5011554;28;20239;-83
2022/07/22 05:14:59;;;;;;;6.97;5.17;;;;;;;;;;5011806;28;20203;-83
2022/07/22 05:17:26;;;;;;;8.53;4.73;;;;;;;;;;5011769;28;20206;-83
2022/07/22 05:19:54;;;;;;;7.33;5.53;;;;;;;;;;5011879;28;20207;-83
2022/07/22 05:22:23;;;;;;;5.83;4.90;;;;;;;;;;5012447;28;20206;-83
2022/07/22 05:24:50;;;;;;;9.13;5.17;;;;;;;;;;5012527;28;20569;-82
2022/07/22 05:27:17;;;;;;;8.83;5.60;;;;;;;;;;5012186;28;20210;-83
2022/07/22 05:29:44;;;;;;;6.73;4.90;;;;;;;;;;5012081;28;20207;-83
2022/07/22 05:32:12;;;;;;;5.10;4.60;;;;;;;;;;5011692;28;20230;-83
2022/07/22 05:34:39;;;;;;;7.53;5.20;;;;;;;;;;5012126;28;20669;-83
2022/07/22 05:37:07;;;;;;;6.57;5.03;;;;;;;;;;5012197;28;20211;-82
2022/07/22 05:39:34;;;;;;;5.63;4.50;;;;;;;;;;5011151;28;20681;-83
2022/07/22 05:42:01;;;;;;;7.33;4.97;;;;;;;;;;5007199;28;20666;-83
2022/07/22 05:44:27;;;;;;;6.57;4.87;;;;;;;;;;5005975;28;20196;-85
2022/07/22 05:46:54;;;;;;;6.73;5.10;;;;;;;;;;4997090;28;20216;-84
2022/07/22 05:49:21;;;;;;;6.80;4.73;;;;;;;;;;4992587;28;20204;-84
2022/07/22 05:51:48;;;;;;;6.37;5.00;;;;;;;;;;5000967;28;20250;-84
2022/07/22 05:54:16;;;;;;;5.57;5.07;;;;;;;;;;4991936;28;20705;-83
2022/07/22 05:56:43;;;;;;;8.03;4.60;;;;;;;;;;5004701;28;20231;-84
2022/07/22 05:59:10;;;;;;;7.93;5.80;;;;;;;;;;5011144;28;20659;-85
2022/07/22 06:01:37;;;;;;;6.33;5.70;;;;;;;;;;5015768;28;20203;-84
2022/07/22 06:04:04;;;;;;;6.20;5.17;;;;;;;;;;5010836;28;20203;-84
2022/07/22 06:06:31;;;;;;;9.77;4.97;;;;;;;;;;5004381;28;20222;-84
2022/07/22 06:08:58;;;;;;;6.37;4.97;;;;;;;;;;5011790;28;20207;-83
2022/07/22 06:11:26;;;;;;;5.27;4.77;;;;;;;;;;5013425;28;20306;-84
2022/07/22 06:13:53;;;;;;;5.47;5.03;;;;;;;;;;5006076;28;20227;-84
2022/07/22 06:16:20;;;;;;;13.43;5.60;;;;;;;;;;4991444;28;20671;-83
2022/07/22 06:18:46;;;;;;;5.30;4.80;;;;;;;;;;4991895;28;20200;-83
2022/07/22 06:21:13;;;;;;;6.07;4.50;;;;;;;;;;5006990;28;20204;-84
2022/07/22 06:23:43;;;;;;;5.07;4.67;;;;;;;;;;5011224;28;20210;-84
2022/07/22 06:26:10;;;;;;;5.33;4.80;;;;;;;;;;5011212;28;20573;-84
2022/07/22 06:28:38;;;;;;;6.43;5.17;;;;;;;;;;5011683;28;20282;-84
2022/07/22 06:31:05;;;;;;;7.23;5.00;;;;;;;;;;5011286;28;20199;-83
2022/07/22 06:33:33;;;;;;;5.77;4.87;;;;;;;;;;5010937;28;20613;-84
2022/07/22 06:36:01;;;;;;;6.10;4.57;;;;;;;;;;4994009;28;20206;-83
2022/07/22 06:38:28;;;;;;;5.67;5.17;;;;;;;;;;5011296;28;20203;-83
2022/07/22 06:40:56;;;;;;;11.10;5.03;;;;;;;;;;4994248;28;20210;-83
2022/07/22 06:43:23;;;;;;;7.00;4.97;;;;;;;;;;4978641;28;20261;-83
2022/07/22 06:45:51;;;;;;;6.20;5.60;;;;;;;;;;5010340;28;20211;-84
2022/07/22 06:48:18;;;;;;;14.27;6.47;;;;;;;;;;5000195;28;20677;-84
2022/07/22 06:50:45;;;;;;;6.13;5.03;;;;;;;;;;4993168;28;20199;-83
2022/07/22 06:53:12;;;;;;;6.53;5.17;;;;;;;;;;4992944;28;20223;-82
2022/07/22 06:55:39;;;;;;;7.27;5.50;;;;;;;;;;5010065;28;20203;-81
2022/07/22 06:58:06;;;;;;;5.63;4.27;;;;;;;;;;5010076;28;20211;-82
2022/07/22 07:00:33;;;;;;;7.53;4.90;;;;;;;;;;4993241;28;20222;-82
2022/07/22 07:03:02;;;;;;;5.73;4.40;;;;;;;;;;5011347;28;20199;-81
2022/07/22 07:05:29;;;;;;;7.57;4.73;;;;;;;;;;4992154;28;20658;-83
2022/07/22 07:07:56;;;;;;;4.93;4.30;;;;;;;;;;5011605;28;20211;-81
2022/07/22 07:10:23;;;;;;;6.13;4.50;;;;;;;;;;5013208;28;20199;-83
2022/07/22 07:12:50;;;;;;;7.22;4.93;;;;;;;;;;5013538;28;20261;-82
2022/07/22 07:15:17;;;;;;;4.75;4.35;;;;;;;;;;5012266;28;20196;-83
2022/07/22 07:17:43;;;;;;;8.85;4.95;;;;;;;;;;5011297;28;20211;-82
2022/07/22 07:20:12;;;;;;;6.57;4.13;;;;;;;;;;5013660;28;20210;-84
2022/07/22 07:22:39;;;;;;;5.22;4.20;;;;;;;;;;5014109;28;20207;-83
2022/07/22 07:25:08;;;;;;;4.80;4.28;;;;;;;;;;5014533;28;20223;-82
2022/07/22 07:27:36;;;;;;;4.25;3.85;;;;;;;;;;5013938;28;20200;-82
2022/07/22 07:30:06;;;;;;;4.53;4.13;;;;;;;;;;5013957;28;20203;-83
2022/07/22 07:32:33;;;;;;;4.85;4.40;;;;;;;;;;5013616;28;20752;-83
2022/07/22 07:35:00;;;;;;;6.53;4.38;;;;;;;;;;5014200;28;20199;-84
2022/07/22 07:37:28;;;;;;;6.13;4.40;;;;;;;;;;5013520;28;20195;-84
2022/07/22 07:39:55;;;;;;;6.75;4.32;;;;;;;;;;5013427;28;20202;-82
2022/07/22 07:42:23;;;;;;;11.85;4.78;;;;;;;;;;5013696;28;20208;-83
2022/07/22 07:44:50;;;;;;;7.80;4.60;;;;;;;;;;5013119;28;20203;-83
2022/07/22 07:47:20;;;;;;;8.68;5.43;;;;;;;;;;5012979;28;20195;-82
2022/07/22 07:49:46;;;;;;;7.15;5.63;;;;;;;;;;5011628;28;20282;-83
2022/07/22 07:52:14;;;;;;;6.30;4.93;;;;;;;;;;5013019;28;20223;-84
2022/07/22 07:54:43;;;;;;;7.50;5.20;;;;;;;;;;4995863;28;20200;-82
2022/07/22 07:57:10;;;;;;;6.60;4.82;;;;;;;;;;5013123;28;20195;-83
2022/07/22 07:59:38;;;;;;;23.08;6.45;;;;;;;;;;5012333;28;20200;-82
2022/07/22 08:02:05;;;;;;;6.50;5.43;;;;;;;;;;4995807;28;20215;-83
2022/07/22 08:04:32;;;;;;;9.20;5.20;;;;;;;;;;5012401;28;20586;-83
2022/07/22 08:07:00;;;;;;;5.75;4.85;;;;;;;;;;4997305;28;20207;-82
2022/07/22 08:09:27;;;;;;;5.43;4.93;;;;;;;;;;5011622;28;20724;-84
2022/07/22 08:11:56;;;;;;;5.88;5.32;;;;;;;;;;4997193;28;20876;-84
2022/07/22 08:14:24;;;;;;;6.35;5.60;;;;;;;;;;4996836;28;20215;-87
2022/07/22 08:16:51;;;;;;;6.60;4.90;;;;;;;;;;4975579;28;20257;-85
2022/07/22 08:19:18;;;;;;;6.35;5.55;;;;;;;;;;4993616;28;20196;-80
2022/07/22 08:21:46;;;;;;;5.55;4.85;;;;;;;;;;5014132;28;20211;-83
2022/07/22 08:24:13;;;;;;;5.78;4.85;;;;;;;;;;4980448;28;20292;-83
2022/07/22 08:26:39;;;;;;;6.78;5.60;;;;;;;;;;5007056;28;20596;-83
2022/07/22 08:29:17;;;;;;;5.45;4.95;;;;;;;;;;5013907;28;20566;-81
2022/07/22 08:31:44;;;;;;;7.85;5.57;;;;;;;;;;5013017;28;20200;-83
2022/07/22 08:34:11;;;;;;;8.25;4.95;;;;;;;;;;4995552;28;20203;-83
2022/07/22 08:36:38;;;;;;;6.93;4.63;;;;;;;;;;4993443;28;20211;-82
2022/07/22 08:39:05;;;;;;;5.72;5.15;;;;;;;;;;5013059;28;20282;-83
2022/07/22 08:41:36;;;;;;;7.97;5.35;;;;;;;;;;5012937;28;20195;-83
2022/07/22 08:44:44;;;;;;;5.78;5.18;;;;;;;;;;4995593;28;20195;-83
2022/07/22 08:47:13;;;;;;;8.65;5.82;;;;;;;;;;5012155;28;20204;-83
2022/07/22 08:49:40;;;;;;;7.18;5.63;;;;;;;;;;4979095;28;20203;-83
2022/07/22 08:52:07;;;;;;;6.43;4.60;;;;;;;;;;4980031;28;20211;-83
2022/07/22 08:54:34;;;;;;;11.13;5.15;;;;;;;;;;4996382;28;20237;-84
2022/07/22 08:57:01;;;;;;;7.32;5.57;;;;;;;;;;5013186;28;20207;-83
2022/07/22 08:59:29;;;;;;;6.80;5.45;;;;;;;;;;5012193;28;20203;-86
2022/07/22 09:02:03;;;;;;;11.45;10.25;;;;;;;;;;5011509;28;20199;-84
2022/07/22 09:04:32;;;;;;;10.98;8.18;;;;;;;;;;5011985;28;20677;-83
2022/07/22 09:07:00;;;;;;;10.02;7.15;;;;;;;;;;4995600;28;20213;-84
2022/07/22 09:09:31;;;;;;;7.22;5.28;;;;;;;;;;4978514;28;20545;-84
2022/07/22 09:12:05;;;;;;;21.25;11.77;;;;;;;;;;5011836;28;20187;-84
2022/07/22 09:14:45;;;;;;;15.93;10.93;;;;;;;;;;5013007;28;20214;-83
2022/07/22 09:17:27;;;;;;;6.93;6.28;;;;;;;;;;5011882;28;20218;-84
2022/07/22 09:19:56;;;;;;;8.82;5.97;;;;;;;;;;5010549;28;20203;-84
2022/07/22 09:22:37;;;;;;;7.35;5.78;;;;;;;;;;5013334;28;20199;-83
2022/07/22 09:25:25;;;;;;;8.02;5.30;;;;;;;;;;5011830;28;20210;-83
2022/07/22 09:27:54;;;;;;;5.45;4.78;;;;;;;;;;5011234;28;20286;-83
2022/07/22 09:30:24;;;;;;;6.57;4.05;;;;;;;;;;4979126;28;20211;-83
2022/07/22 09:32:54;;;;;;;5.20;4.30;;;;;;;;;;4995045;28;20211;-84
2022/07/22 09:35:22;;;;;;;5.60;4.63;;;;;;;;;;5012064;28;20199;-84
2022/07/22 09:37:52;;;;;;;6.72;4.25;;;;;;;;;;5012675;28;20211;-83
2022/07/22 09:40:22;;;;;;;4.57;3.88;;;;;;;;;;4995522;28;20222;-84
2022/07/22 09:42:51;;;;;;;5.13;3.83;;;;;;;;;;5011360;28;20257;-82
2022/07/22 09:45:19;;;;;;;4.90;4.40;;;;;;;;;;5012063;28;20218;-83
2022/07/22 09:47:48;;;;;;;6.05;4.10;;;;;;;;;;4994160;28;20211;-84
2022/07/22 09:50:17;;;;;;;5.97;4.65;;;;;;;;;;4993734;28;20603;-83
2022/07/22 09:52:46;;;;;;;5.53;4.07;;;;;;;;;;5012781;28;20605;-84
2022/07/22 09:55:16;;;;;;;4.63;4.22;;;;;;;;;;5012260;28;20215;-83
2022/07/22 09:57:44;;;;;;;4.63;4.20;;;;;;;;;;5011431;28;20223;-84
2022/07/22 10:00:12;;;;;;;4.63;4.22;;;;;;;;;;4977687;28;20278;-83
2022/07/22 10:02:43;;;;;;;5.20;3.85;;;;;;;;;;5011897;28;20199;-84
2022/07/22 10:05:12;;;;;;;5.03;4.38;;;;;;;;;;4994695;28;20199;-83
2022/07/22 10:07:42;;;;;;;4.18;3.88;;;;;;;;;;5011310;28;20565;-84
2022/07/22 10:10:12;;;;;;;6.95;4.20;;;;;;;;;;4993763;28;20206;-84
2022/07/22 10:12:39;;;;;;;4.03;3.63;;;;;;;;;;5010865;28;20227;-83
2022/07/22 10:15:08;;;;;;;4.55;3.88;;;;;;;;;;5010277;28;20210;-86
2022/07/22 10:17:37;;;;;;;6.20;4.30;;;;;;;;;;4993415;28;20219;-84
2022/07/22 10:20:05;;;;;;;5.43;4.65;;;;;;;;;;5012041;28;20603;-84
2022/07/22 10:22:50;;;;;;;6.15;4.32;;;;;;;;;;4994575;28;20207;-84
2022/07/22 10:25:20;;;;;;;4.50;4.10;;;;;;;;;;5012591;28;20286;-84
2022/07/22 10:27:49;;;;;;;7.28;3.72;;;;;;;;;;4994404;28;20206;-84
2022/07/22 10:30:19;;;;;;;6.18;4.45;;;;;;;;;;5010005;28;20199;-84
2022/07/22 10:32:46;;;;;;;5.07;4.18;;;;;;;;;;4993877;28;20406;-84
2022/07/22 10:35:26;;;;;;;4.93;4.20;;;;;;;;;;4992760;28;20568;-84
2022/07/22 10:37:56;;;;;;;6.63;3.75;;;;;;;;;;5010716;28;20579;-82
2022/07/22 10:40:26;;;;;;;6.32;4.32;;;;;;;;;;5010847;28;20195;-83
2022/07/22 10:43:12;;;;;;;5.05;3.97;;;;;;;;;;4993854;28;20624;-84
2022/07/22 10:45:53;;;;;;;4.55;4.03;;;;;;;;;;4992363;28;20287;-83
2022/07/22 10:48:22;;;;;;;6.40;3.95;;;;;;;;;;5007743;28;20195;-86
2022/07/22 10:50:56;;;;;;;4.53;4.13;;;;;;;;;;4974836;28;20200;-83
2022/07/22 10:53:26;;;;;;;6.05;3.80;;;;;;;;;;5008019;28;20314;-83
2022/07/22 10:56:03;;;;;;;5.22;3.53;;;;;;;;;;5010615;28;20227;-83
2022/07/22 10:58:45;;;;;;;4.28;3.88;;;;;;;;;;4993562;28;20226;-85
2022/07/22 11:01:14;;;;;;;4.30;3.95;;;;;;;;;;5011099;28;20206;-93
2022/07/22 11:03:42;;;;;;;3.83;3.53;;;;;;;;;;5010547;28;20601;-86
2022/07/22 11:06:18;;;;;;;8.88;3.60;;;;;;;;;;4993540;28;20199;-90
2022/07/22 11:08:47;;;;;;;4.07;3.63;;;;;;;;;;5010739;28;20195;-87
2022/07/22 11:11:19;;;;;;;5.15;4.22;;;;;;;;;;5009988;28;20203;-83
2022/07/22 11:13:47;;;;;;;5.47;4.00;;;;;;;;;;5011243;28;20772;-88
2022/07/22 11:16:18;;;;;;;4.28;3.60;;;;;;;;;;5010205;28;20196;-86
2022/07/22 11:18:52;;;;;;;4.22;3.25;;;;;;;;;;4994522;28;20200;-91
2022/07/22 11:21:25;;;;;;;6.57;3.53;;;;;;;;;;5008955;28;20270;-86
2022/07/22 11:23:53;;;;;;;3.35;3.03;;;;;;;;;;4993437;28;20227;-85
2022/07/22 11:26:29;;;;;;;6.93;3.60;;;;;;;;;;4992454;28;20203;-85
2022/07/22 11:28:56;;;;;;;4.18;2.90;;;;;;;;;;4991888;28;20199;-87
2022/07/22 11:31:23;;;;;;;6.43;3.65;;;;;;;;;;4975882;28;20530;-86
2022/07/22 11:33:51;;;;;;;7.22;3.88;;;;;;;;;;4992457;28;20230;-86
2022/07/22 11:36:18;;;;;;;5.13;3.50;;;;;;;;;;4992237;28;20257;-86
2022/07/22 11:38:48;;;;;;;6.10;3.90;;;;;;;;;;5010070;28;20199;-85
2022/07/22 11:41:19;;;;;;;4.28;3.25;;;;;;;;;;4991499;28;20546;-84
2022/07/22 11:43:49;;;;;;;4.70;3.75;;;;;;;;;;4993218;28;20200;-86
2022/07/22 11:46:19;;;;;;;4.47;3.75;;;;;;;;;;5010235;28;20195;-87
2022/07/22 11:48:47;;;;;;;4.10;3.70;;;;;;;;;;4994869;28;20669;-88
2022/07/22 11:51:15;;;;;;;4.22;3.92;;;;;;;;;;5009553;28;20199;-89
2022/07/22 11:53:44;;;;;;;4.63;3.85;;;;;;;;;;5012714;28;20230;-87
2022/07/22 11:56:12;;;;;;;4.22;3.72;;;;;;;;;;5012846;28;20287;-86
2022/07/22 11:58:41;;;;;;;4.65;3.50;;;;;;;;;;5014361;28;20278;-85
2022/07/22 12:01:11;;;;;;;4.90;3.72;;;;;;;;;;5013232;28;20195;-85
2022/07/22 12:03:42;;;;;;;4.43;3.45;;;;;;;;;;5014069;28;20203;-87
2022/07/22 12:06:10;;;;;;;4.20;3.85;;;;;;;;;;5014195;28;20674;-86
2022/07/22 12:08:42;;;;;;;6.18;3.80;;;;;;;;;;5013484;28;20693;-86
2022/07/22 12:11:10;;;;;;;4.93;3.90;;;;;;;;;;5014618;28;20195;-87
2022/07/22 12:13:37;;;;;;;4.80;4.38;;;;;;;;;;4995289;28;20234;-85
2022/07/22 12:16:28;;;;;;;4.80;4.18;;;;;;;;;;5014799;28;20207;-84
2022/07/22 12:18:57;;;;;;;7.60;3.85;;;;;;;;;;5014561;28;20606;-84
2022/07/22 12:21:26;;;;;;;4.90;4.03;;;;;;;;;;4996873;28;20211;-85
2022/07/22 12:23:56;;;;;;;4.32;3.97;;;;;;;;;;4994992;28;20257;-88
2022/07/22 12:26:44;;;;;;;7.95;4.20;;;;;;;;;;5014335;28;20207;-86
2022/07/22 12:29:20;;;;;;;5.43;3.63;;;;;;;;;;4995845;28;20257;-83
2022/07/22 12:31:50;;;;;;;7.47;4.00;;;;;;;;;;5012967;28;20203;-86
2022/07/22 12:34:30;;;;;;;8.27;4.60;;;;;;;;;;5013868;28;20234;-83
2022/07/22 12:37:02;;;;;;;4.63;4.22;;;;;;;;;;4995618;28;20582;-85
2022/07/22 12:39:29;;;;;;;5.57;4.05;;;;;;;;;;5013337;28;20199;-84
2022/07/22 12:41:56;;;;;;;13.35;4.70;;;;;;;;;;5014909;28;20206;-83
2022/07/22 12:44:24;;;;;;;3.95;3.10;;;;;;;;;;5012831;28;20192;-83
2022/07/22 12:46:57;;;;;;;4.15;3.85;;;;;;;;;;5013803;28;20555;-86
2022/07/22 12:49:25;;;;;;;4.43;4.03;;;;;;;;;;4996582;28;20199;-84
2022/07/22 12:52:10;;;;;;;6.80;4.10;;;;;;;;;;5014572;28;20218;-86
2022/07/22 12:54:38;;;;;;;5.60;3.75;;;;;;;;;;5011027;28;20589;-86
2022/07/22 12:57:06;;;;;;;3.83;3.53;;;;;;;;;;4995710;28;20207;-88
2022/07/22 12:59:33;;;;;;;4.40;3.78;;;;;;;;;;5013201;28;20210;-92
2022/07/22 13:02:03;;;;;;;7.13;3.53;;;;;;;;;;5011442;28;20200;-86
2022/07/22 13:04:31;;;;;;;5.03;4.00;;;;;;;;;;5011141;28;20192;-92
2022/07/22 13:06:58;;;;;;;4.35;3.60;;;;;;;;;;5013224;28;20206;-86
2022/07/22 13:09:25;;;;;;;3.90;3.53;;;;;;;;;;5011854;28;20202;-86
2022/07/22 13:11:53;;;;;;;5.40;3.95;;;;;;;;;;5012921;28;20206;-88
2022/07/22 13:14:20;;;;;;;7.15;3.75;;;;;;;;;;4979096;28;20336;-88
2022/07/22 13:16:49;;;;;;;5.78;3.42;;;;;;;;;;5012514;28;20661;-88
2022/07/22 13:19:18;;;;;;;5.18;3.65;;;;;;;;;;5013417;28;20199;-88
2022/07/22 13:21:46;;;;;;;6.82;3.70;;;;;;;;;;4994381;28;20196;-86
2022/07/22 13:24:15;;;;;;;4.28;3.78;;;;;;;;;;5011345;28;20210;-88
2022/07/22 13:26:45;;;;;;;8.65;3.10;;;;;;;;;;4994829;28;20551;-88
2022/07/22 13:29:15;;;;;;;4.38;3.47;;;;;;;;;;5010946;28;20685;-87
2022/07/22 13:31:55;;;;;;;5.97;3.22;;;;;;;;;;5012326;28;20282;-87
2022/07/22 13:34:25;;;;;;;5.10;3.28;;;;;;;;;;5008243;28;20246;-86
2022/07/22 13:36:52;;;;;;;7.03;3.30;;;;;;;;;;5011981;28;20215;-88
2022/07/22 13:39:19;;;;;;;5.93;3.38;;;;;;;;;;5010131;28;20196;-86
2022/07/22 13:41:47;;;;;;;3.50;3.20;;;;;;;;;;4994426;28;20203;-88
2022/07/22 13:44:15;;;;;;;3.08;2.88;;;;;;;;;;4995422;28;20217;-88
2022/07/22 13:46:43;;;;;;;6.55;3.53;;;;;;;;;;5011610;28;20195;-87
2022/07/22 13:49:10;;;;;;;3.58;3.28;;;;;;;;;;5013032;28;20670;-87
2022/07/22 13:51:39;;;;;;;3.70;3.40;;;;;;;;;;4978342;28;20203;-86
2022/07/22 13:54:07;;;;;;;3.72;3.38;;;;;;;;;;5011928;28;20226;-88
2022/07/22 13:56:34;;;;;;;3.75;3.45;;;;;;;;;;5011404;28;20195;-87
2022/07/22 13:59:04;;;;;;;3.40;3.13;;;;;;;;;;5011464;28;20687;-88
2022/07/22 14:01:32;;;;;;;3.20;2.90;;;;;;;;;;5010840;28;20203;-88
2022/07/22 14:04:02;;;;;;;13.68;3.42;;;;;;;;;;5012134;28;20658;-89
2022/07/22 14:06:30;;;;;;;4.68;3.00;;;;;;;;;;5010723;28;20196;-86
2022/07/22 14:09:01;;;;;;;3.55;2.95;;;;;;;;;;5011603;28;20195;-85
2022/07/22 14:11:28;;;;;;;5.38;3.25;;;;;;;;;;4994096;28;20289;-86
2022/07/22 14:13:55;;;;;;;3.63;3.33;;;;;;;;;;4993276;28;20701;-87
2022/07/22 14:16:35;;;;;;;4.30;2.88;;;;;;;;;;4991559;28;20642;-87
2022/07/22 14:19:06;;;;;;;5.32;2.75;;;;;;;;;;4995103;28;20203;-87
2022/07/22 14:21:33;;;;;;;3.97;3.35;;;;;;;;;;5010578;28;20215;-88
2022/07/22 14:24:02;;;;;;;4.82;3.42;;;;;;;;;;5011980;28;20211;-87
2022/07/22 14:26:32;;;;;;;3.35;3.05;;;;;;;;;;5010150;28;20199;-88
2022/07/22 14:29:00;;;;;;;7.50;4.15;;;;;;;;;;4993593;28;20211;-86
2022/07/22 14:31:28;;;;;;;8.57;3.42;;;;;;;;;;5009965;28;20207;-87
2022/07/22 14:33:55;;;;;;;5.18;3.88;;;;;;;;;;4994643;28;20219;-85
2022/07/22 14:36:25;;;;;;;3.35;3.08;;;;;;;;;;4994289;28;20291;-92
2022/07/22 14:38:54;;;;;;;3.05;2.83;;;;;;;;;;5012691;28;20236;-88
2022/07/22 14:41:24;;;;;;;4.20;3.03;;;;;;;;;;5012247;28;20230;-90
2022/07/22 14:43:51;;;;;;;3.55;3.28;;;;;;;;;;4995420;28;20225;-86
2022/07/22 14:46:19;;;;;;;4.65;3.22;;;;;;;;;;4999552;28;20207;-86
2022/07/22 14:48:52;;;;;;;3.58;3.28;;;;;;;;;;4995076;28;20211;-88
2022/07/22 14:51:20;;;;;;;5.75;3.33;;;;;;;;;;5012052;28;20254;-89
2022/07/22 14:57:11;;;;;;;9.68;3.03;;;;;;;;;;5013355;28;20163;-91
2022/07/22 14:59:39;;;;;;;4.32;3.10;;;;;;;;;;5011635;28;20693;-92
2022/07/22 15:02:13;;;;;;;5.00;3.13;;;;;;;;;;4979315;28;20199;-87
2022/07/22 15:04:41;;;;;;;6.55;3.33;;;;;;;;;;5011456;28;20685;-92
2022/07/22 15:07:13;;;;;;;2.67;2.45;;;;;;;;;;5011331;28;20203;-89
2022/07/22 15:09:40;;;;;;;3.60;3.30;;;;;;;;;;5012044;28;20207;-90
2022/07/22 15:12:11;;;;;;;6.63;3.45;;;;;;;;;;4977548;28;20203;-91
2022/07/22 15:14:48;;;;;;;6.32;3.40;;;;;;;;;;4995804;28;20250;-90
2022/07/22 15:17:16;;;;;;;5.22;2.85;;;;;;;;;;5008025;28;20199;-88
2022/07/22 15:19:43;;;;;;;4.70;3.17;;;;;;;;;;5012171;28;20300;-92